sensor_id;sensor_type;location;lat;lon;timestamp;pressure;altitude;pressure_sealevel;temperature;humidity
59767;BME280;46248;58.364;25.582;2024-01-16T00:02:12;97394.88;;;-8.25;100.00
59767;BME280;46248;58.364;25.582;2024-01-16T00:05:35;97384.88;;;-8.31;100.00
59767;BME280;46248;58.364;25.582;2024-01-16T00:08:59;97386.53;;;-8.30;100.00
59767;BME280;46248;58.364;25.582;2024-01-16T00:12:23;97402.34;;;-8.20;100.00
59767;BME280;46248;58.364;25.582;2024-01-16T00:15:45;97394.81;;;-8.22;100.00
59767;BME280;46248;58.364;25.582;2024-01-16T00:19:11;97386.34;;;-8.22;100.00
59767;BME280;46248;58.364;25.582;2024-01-16T00:22:34;97408.25;;;-8.18;100.00
59767;BME280;46248;58.364;25.582;2024-01-16T00:25:58;97400.59;;;-8.17;100.00
59767;BME280;46248;58.364;25.582;2024-01-16T00:29:21;97403.00;;;-8.12;100.00
59767;BME280;46248;58.364;25.582;2024-01-16T00:32:44;97406.41;;;-8.13;100.00
59767;BME280;46248;58.364;25.582;2024-01-16T00:36:08;97386.28;;;-8.19;100.00
59767;BME280;46248;58.364;25.582;2024-01-16T00:39:30;97400.59;;;-8.17;100.00
59767;BME280;46248;58.364;25.582;2024-01-16T00:42:55;97405.63;;;-8.15;100.00
59767;BME280;46248;58.364;25.582;2024-01-16T00:46:18;97405.63;;;-8.15;100.00
59767;BME280;46248;58.364;25.582;2024-01-16T00:49:41;97420.81;;;-8.14;100.00
59767;BME280;46248;58.364;25.582;2024-01-16T00:53:04;97421.69;;;-8.15;100.00
59767;BME280;46248;58.364;25.582;2024-01-16T00:56:27;97426.75;;;-8.15;100.00
59767;BME280;46248;58.364;25.582;2024-01-16T00:59:54;97431.75;;;-8.12;100.00
59767;BME280;46248;58.364;25.582;2024-01-16T01:03:17;97415.03;;;-8.20;100.00
59767;BME280;46248;58.364;25.582;2024-01-16T01:06:40;97439.50;;;-8.16;100.00
59767;BME280;46248;58.364;25.582;2024-01-16T01:10:03;97449.44;;;-8.09;100.00
59767;BME280;46248;58.364;25.582;2024-01-16T01:13:27;97446.06;;;-8.08;100.00
59767;BME280;46248;58.364;25.582;2024-01-16T01:16:52;97455.34;;;-8.08;100.00
59767;BME280;46248;58.364;25.582;2024-01-16T01:20:15;97452.88;;;-8.11;100.00
59767;BME280;46248;58.364;25.582;2024-01-16T01:23:38;97463.09;;;-8.13;100.00
59767;BME280;46248;58.364;25.582;2024-01-16T01:27:01;97475.88;;;-8.16;100.00
59767;BME280;46248;58.364;25.582;2024-01-16T01:30:24;97467.41;;;-8.16;100.00
59767;BME280;46248;58.364;25.582;2024-01-16T01:33:48;97474.31;;;-8.21;100.00
59767;BME280;46248;58.364;25.582;2024-01-16T01:37:11;97476.91;;;-8.24;100.00
59767;BME280;46248;58.364;25.582;2024-01-16T01:40:35;97470.34;;;-8.32;100.00
59767;BME280;46248;58.364;25.582;2024-01-16T01:43:58;97488.84;;;-8.28;100.00
59767;BME280;46248;58.364;25.582;2024-01-16T01:47:21;97486.34;;;-8.30;100.00
59767;BME280;46248;58.364;25.582;2024-01-16T01:50:46;97493.13;;;-8.30;100.00
59767;BME280;46248;58.364;25.582;2024-01-16T01:54:09;97495.75;;;-8.33;100.00
59767;BME280;46248;58.364;25.582;2024-01-16T01:57:33;97498.34;;;-8.36;100.00
59767;BME280;46248;58.364;25.582;2024-01-16T02:00:56;97500.91;;;-8.36;100.00
59767;BME280;46248;58.364;25.582;2024-01-16T02:04:19;97509.38;;;-8.37;100.00
59767;BME280;46248;58.364;25.582;2024-01-16T02:07:45;97512.09;;;-8.43;100.00
59767;BME280;46248;58.364;25.582;2024-01-16T02:11:09;97515.41;;;-8.41;100.00
59767;BME280;46248;58.364;25.582;2024-01-16T02:14:32;97529.03;;;-8.44;100.00
59767;BME280;46248;58.364;25.582;2024-01-16T02:17:55;97523.25;;;-8.50;100.00
59767;BME280;46248;58.364;25.582;2024-01-16T02:21:22;97528.38;;;-8.52;100.00
59767;BME280;46248;58.364;25.582;2024-01-16T02:24:47;97534.41;;;-8.58;100.00
59767;BME280;46248;58.364;25.582;2024-01-16T02:28:10;97526.13;;;-8.64;100.00
59767;BME280;46248;58.364;25.582;2024-01-16T02:31:34;97547.25;;;-8.65;100.00
59767;BME280;46248;58.364;25.582;2024-01-16T02:34:57;97545.66;;;-8.68;100.00
59767;BME280;46248;58.364;25.582;2024-01-16T02:38:20;97558.34;;;-8.69;100.00
59767;BME280;46248;58.364;25.582;2024-01-16T02:41:44;97551.69;;;-8.73;100.00
59767;BME280;46248;58.364;25.582;2024-01-16T02:45:08;97567.78;;;-8.76;100.00
59767;BME280;46248;58.364;25.582;2024-01-16T02:48:31;97562.78;;;-8.79;100.00
59767;BME280;46248;58.364;25.582;2024-01-16T02:51:54;97573.75;;;-8.79;100.00
59767;BME280;46248;58.364;25.582;2024-01-16T02:55:17;97573.94;;;-8.88;100.00
59767;BME280;46248;58.364;25.582;2024-01-16T02:58:41;97583.28;;;-8.90;100.00
59767;BME280;46248;58.364;25.582;2024-01-16T03:02:04;97596.88;;;-8.92;100.00
59767;BME280;46248;58.364;25.582;2024-01-16T03:05:27;97598.72;;;-9.01;100.00
59767;BME280;46248;58.364;25.582;2024-01-16T03:08:50;97571.22;;;-9.20;100.00
59767;BME280;46248;58.364;25.582;2024-01-16T03:12:12;97610.69;;;-9.07;100.00
59767;BME280;46248;58.364;25.582;2024-01-16T03:15:37;97614.94;;;-9.09;100.00
59767;BME280;46248;58.364;25.582;2024-01-16T03:18:59;97617.47;;;-9.09;100.00
59767;BME280;46248;58.364;25.582;2024-01-16T03:22:23;97622.59;;;-9.12;100.00
59767;BME280;46248;58.364;25.582;2024-01-16T03:25:46;97625.97;;;-9.12;100.00
59767;BME280;46248;58.364;25.582;2024-01-16T03:29:09;97633.63;;;-9.13;100.00
59767;BME280;46248;58.364;25.582;2024-01-16T03:32:34;97645.53;;;-9.18;100.00
59767;BME280;46248;58.364;25.582;2024-01-16T03:35:57;97644.84;;;-9.27;100.00
59767;BME280;46248;58.364;25.582;2024-01-16T03:39:19;97640.59;;;-9.25;100.00
59767;BME280;46248;58.364;25.582;2024-01-16T03:42:43;97640.69;;;-9.31;100.00
59767;BME280;46248;58.364;25.582;2024-01-16T03:46:06;97646.69;;;-9.36;100.00
59767;BME280;46248;58.364;25.582;2024-01-16T03:49:31;97651.81;;;-9.39;100.00
59767;BME280;46248;58.364;25.582;2024-01-16T03:52:54;97656.94;;;-9.42;100.00
59767;BME280;46248;58.364;25.582;2024-01-16T03:56:16;97660.34;;;-9.43;100.00
59767;BME280;46248;58.364;25.582;2024-01-16T03:59:39;97669.66;;;-9.46;100.00
59767;BME280;46248;58.364;25.582;2024-01-16T04:03:03;97670.66;;;-9.54;100.00
59767;BME280;46248;58.364;25.582;2024-01-16T04:06:28;97671.59;;;-9.60;100.00
59767;BME280;46248;58.364;25.582;2024-01-16T04:09:52;97665.03;;;-9.72;100.00
59767;BME280;46248;58.364;25.582;2024-01-16T04:13:16;97682.72;;;-9.70;100.00
59767;BME280;46248;58.364;25.582;2024-01-16T04:16:39;97692.00;;;-9.69;100.00
59767;BME280;46248;58.364;25.582;2024-01-16T04:20:03;97693.75;;;-9.74;100.00
59767;BME280;46248;58.364;25.582;2024-01-16T04:23:30;97683.84;;;-9.89;100.00
59767;BME280;46248;58.364;25.582;2024-01-16T04:26:53;97705.69;;;-9.81;100.00
59767;BME280;46248;58.364;25.582;2024-01-16T04:30:16;97700.75;;;-9.88;100.00
59767;BME280;46248;58.364;25.582;2024-01-16T04:33:41;97699.88;;;-9.87;100.00
59767;BME280;46248;58.364;25.582;2024-01-16T04:37:04;97707.50;;;-9.89;100.00
59767;BME280;46248;58.364;25.582;2024-01-16T04:40:29;97720.25;;;-9.97;100.00
59767;BME280;46248;58.364;25.582;2024-01-16T04:43:52;97716.94;;;-10.00;100.00
59767;BME280;46248;58.364;25.582;2024-01-16T04:47:15;97717.81;;;-10.03;100.00
59767;BME280;46248;58.364;25.582;2024-01-16T04:50:40;97726.28;;;-10.04;100.00
59767;BME280;46248;58.364;25.582;2024-01-16T04:54:03;97738.94;;;-10.04;100.00
59767;BME280;46248;58.364;25.582;2024-01-16T04:57:28;97749.88;;;-10.03;100.00
59767;BME280;46248;58.364;25.582;2024-01-16T05:00:51;97753.34;;;-10.10;100.00
59767;BME280;46248;58.364;25.582;2024-01-16T05:04:14;97753.34;;;-10.10;100.00
59767;BME280;46248;58.364;25.582;2024-01-16T05:07:36;97742.63;;;-10.26;100.00
59767;BME280;46248;58.364;25.582;2024-01-16T05:11:01;97767.75;;;-10.16;100.00
59767;BME280;46248;58.364;25.582;2024-01-16T05:14:26;97755.31;;;-10.28;100.00
59767;BME280;46248;58.364;25.582;2024-01-16T05:17:48;97772.88;;;-10.20;100.00
59767;BME280;46248;58.364;25.582;2024-01-16T05:21:11;97778.00;;;-10.25;100.00
59767;BME280;46248;58.364;25.582;2024-01-16T05:24:34;97770.47;;;-10.29;100.00
59767;BME280;46248;58.364;25.582;2024-01-16T05:27:57;97789.03;;;-10.29;100.00
59767;BME280;46248;58.364;25.582;2024-01-16T05:31:21;97806.75;;;-10.32;100.00
59767;BME280;46248;58.364;25.582;2024-01-16T05:34:44;97811.81;;;-10.30;100.00
59767;BME280;46248;58.364;25.582;2024-01-16T05:38:07;97811.03;;;-10.34;100.00
59767;BME280;46248;58.364;25.582;2024-01-16T05:41:34;97802.69;;;-10.42;100.00
59767;BME280;46248;58.364;25.582;2024-01-16T05:44:57;97823.66;;;-10.32;100.00
59767;BME280;46248;58.364;25.582;2024-01-16T05:48:21;97850.66;;;-10.34;100.00
59767;BME280;46248;58.364;25.582;2024-01-16T05:51:45;97860.78;;;-10.34;100.00
59767;BME280;46248;58.364;25.582;2024-01-16T05:55:08;97862.50;;;-10.41;100.00
59767;BME280;46248;58.364;25.582;2024-01-16T05:58:32;97874.31;;;-10.39;100.00
59767;BME280;46248;58.364;25.582;2024-01-16T06:01:59;97864.25;;;-10.45;100.00
59767;BME280;46248;58.364;25.582;2024-01-16T06:05:24;97886.16;;;-10.42;100.00
59767;BME280;46248;58.364;25.582;2024-01-16T06:08:47;97889.56;;;-10.48;100.00
59767;BME280;46248;58.364;25.582;2024-01-16T06:12:10;97904.72;;;-10.45;100.00
59767;BME280;46248;58.364;25.582;2024-01-16T06:15:33;97915.72;;;-10.50;100.00
59767;BME280;46248;58.364;25.582;2024-01-16T06:18:56;97926.66;;;-10.48;100.00
59767;BME280;46248;58.364;25.582;2024-01-16T06:22:20;97928.34;;;-10.46;100.00
59767;BME280;46248;58.364;25.582;2024-01-16T06:25:43;97930.06;;;-10.51;100.00
59767;BME280;46248;58.364;25.582;2024-01-16T06:29:06;97930.03;;;-10.46;100.00
59767;BME280;46248;58.364;25.582;2024-01-16T06:32:44;97946.91;;;-10.47;100.00
59767;BME280;46248;58.364;25.582;2024-01-16T06:36:07;97956.16;;;-10.47;100.00
59767;BME280;46248;58.364;25.582;2024-01-16T06:39:32;97953.66;;;-10.49;100.00
59767;BME280;46248;58.364;25.582;2024-01-16T06:42:55;97961.22;;;-10.47;100.00
59767;BME280;46248;58.364;25.582;2024-01-16T06:46:18;97962.94;;;-10.49;100.00
59767;BME280;46248;58.364;25.582;2024-01-16T06:49:41;97980.63;;;-10.48;100.00
59767;BME280;46248;58.364;25.582;2024-01-16T06:53:04;97978.94;;;-10.50;100.00
59767;BME280;46248;58.364;25.582;2024-01-16T06:56:28;97993.28;;;-10.49;100.00
59767;BME280;46248;58.364;25.582;2024-01-16T06:59:51;97999.19;;;-10.49;100.00
59767;BME280;46248;58.364;25.582;2024-01-16T07:03:14;98000.84;;;-10.46;100.00
59767;BME280;46248;58.364;25.582;2024-01-16T07:06:38;98011.81;;;-10.50;100.00
59767;BME280;46248;58.364;25.582;2024-01-16T07:10:01;98004.22;;;-10.50;100.00
59767;BME280;46248;58.364;25.582;2024-01-16T07:13:26;98019.41;;;-10.50;100.00
59767;BME280;46248;58.364;25.582;2024-01-16T07:16:49;98019.47;;;-10.55;100.00
59767;BME280;46248;58.364;25.582;2024-01-16T07:20:12;98030.41;;;-10.54;100.00
59767;BME280;46248;58.364;25.582;2024-01-16T07:23:35;98040.53;;;-10.57;100.00
59767;BME280;46248;58.364;25.582;2024-01-16T07:26:58;98040.53;;;-10.59;100.00
59767;BME280;46248;58.364;25.582;2024-01-16T07:30:22;98049.84;;;-10.61;100.00
59767;BME280;46248;58.364;25.582;2024-01-16T07:33:45;98055.75;;;-10.65;100.00
59767;BME280;46248;58.364;25.582;2024-01-16T07:37:08;98058.28;;;-10.65;100.00
59767;BME280;46248;58.364;25.582;2024-01-16T07:40:31;98070.09;;;-10.69;100.00
59767;BME280;46248;58.364;25.582;2024-01-16T07:43:54;98076.03;;;-10.70;100.00
59767;BME280;46248;58.364;25.582;2024-01-16T07:47:18;98079.44;;;-10.74;100.00
59767;BME280;46248;58.364;25.582;2024-01-16T07:50:41;98090.38;;;-10.75;100.00
59767;BME280;46248;58.364;25.582;2024-01-16T07:54:06;98101.34;;;-10.77;100.00
59767;BME280;46248;58.364;25.582;2024-01-16T07:57:29;98115.69;;;-10.79;100.00
59767;BME280;46248;58.364;25.582;2024-01-16T08:00:53;98112.31;;;-10.80;100.00
59767;BME280;46248;58.364;25.582;2024-01-16T08:04:17;98113.16;;;-10.81;100.00
59767;BME280;46248;58.364;25.582;2024-01-16T08:07:42;98125.84;;;-10.89;100.00
59767;BME280;46248;58.364;25.582;2024-01-16T08:11:05;98131.72;;;-10.85;100.00
59767;BME280;46248;58.364;25.582;2024-01-16T08:14:28;98130.88;;;-10.86;100.00
59767;BME280;46248;58.364;25.582;2024-01-16T08:17:50;98136.78;;;-10.88;100.00
59767;BME280;46248;58.364;25.582;2024-01-16T08:21:15;98140.16;;;-10.88;100.00
59767;BME280;46248;58.364;25.582;2024-01-16T08:24:38;98141.03;;;-10.92;100.00
59767;BME280;46248;58.364;25.582;2024-01-16T08:28:01;98156.16;;;-10.87;100.00
59767;BME280;46248;58.364;25.582;2024-01-16T08:31:24;98149.44;;;-10.93;100.00
59767;BME280;46248;58.364;25.582;2024-01-16T08:34:48;98162.91;;;-10.95;100.00
59767;BME280;46248;58.364;25.582;2024-01-16T08:38:13;98174.72;;;-10.99;100.00
59767;BME280;46248;58.364;25.582;2024-01-16T08:41:36;98185.69;;;-11.00;100.00
59767;BME280;46248;58.364;25.582;2024-01-16T08:44:59;98199.16;;;-10.99;100.00
59767;BME280;46248;58.364;25.582;2024-01-16T08:48:23;98190.72;;;-10.98;100.00
59767;BME280;46248;58.364;25.582;2024-01-16T08:51:45;98199.16;;;-11.05;100.00
59767;BME280;46248;58.364;25.582;2024-01-16T08:55:10;98214.31;;;-10.96;100.00
59767;BME280;46248;58.364;25.582;2024-01-16T08:58:33;98223.56;;;-10.92;100.00
59767;BME280;46248;58.364;25.582;2024-01-16T09:01:57;98228.59;;;-10.89;100.00
59767;BME280;46248;58.364;25.582;2024-01-16T09:05:19;98224.44;;;-11.01;100.00
59767;BME280;46248;58.364;25.582;2024-01-16T09:08:46;98232.00;;;-10.96;100.00
59767;BME280;46248;58.364;25.582;2024-01-16T09:12:11;98249.72;;;-10.98;100.00
59767;BME280;46248;58.364;25.582;2024-01-16T09:15:34;98253.09;;;-11.00;100.00
59767;BME280;46248;58.364;25.582;2024-01-16T09:18:56;98249.72;;;-11.12;100.00
59767;BME280;46248;58.364;25.582;2024-01-16T09:22:19;98269.09;;;-11.15;100.00
59767;BME280;46248;58.364;25.582;2024-01-16T09:25:42;98273.31;;;-11.16;100.00
59767;BME280;46248;58.364;25.582;2024-01-16T09:29:10;98292.66;;;-11.22;100.00
59767;BME280;46248;58.364;25.582;2024-01-16T09:32:32;98310.34;;;-11.25;100.00
59767;BME280;46248;58.364;25.582;2024-01-16T09:35:56;98307.00;;;-11.37;100.00
59767;BME280;46248;58.364;25.582;2024-01-16T09:39:20;98317.94;;;-11.39;100.00
59767;BME280;46248;58.364;25.582;2024-01-16T09:42:43;98328.03;;;-11.42;100.00
59767;BME280;46248;58.364;25.582;2024-01-16T09:46:08;98342.34;;;-11.41;100.00
59767;BME280;46248;58.364;25.582;2024-01-16T09:49:32;98343.16;;;-11.38;100.00
59767;BME280;46248;58.364;25.582;2024-01-16T09:52:54;98351.63;;;-11.40;100.00
59767;BME280;46248;58.364;25.582;2024-01-16T09:56:21;98354.97;;;-11.34;100.00
59767;BME280;46248;58.364;25.582;2024-01-16T09:59:45;98349.09;;;-11.34;100.00
59767;BME280;46248;58.364;25.582;2024-01-16T10:03:12;98354.97;;;-11.29;100.00
59767;BME280;46248;58.364;25.582;2024-01-16T10:06:38;98359.19;;;-11.26;100.00
59767;BME280;46248;58.364;25.582;2024-01-16T10:10:02;98360.88;;;-11.24;100.00
59767;BME280;46248;58.364;25.582;2024-01-16T10:13:25;98357.50;;;-11.29;100.00
59767;BME280;46248;58.364;25.582;2024-01-16T10:16:56;98380.25;;;-11.24;100.00
59767;BME280;46248;58.364;25.582;2024-01-16T10:20:32;98386.13;;;-11.22;100.00
59767;BME280;46248;58.364;25.582;2024-01-16T10:23:55;98376.88;;;-11.17;100.00
59767;BME280;46248;58.364;25.582;2024-01-16T10:27:24;98397.94;;;-11.17;100.00
59767;BME280;46248;58.364;25.582;2024-01-16T10:31:01;98405.50;;;-11.23;100.00
59767;BME280;46248;58.364;25.582;2024-01-16T10:34:25;98400.47;;;-11.24;100.00
59767;BME280;46248;58.364;25.582;2024-01-16T10:37:50;98407.22;;;-11.25;100.00
59767;BME280;46248;58.364;25.582;2024-01-16T10:41:15;98410.56;;;-11.31;100.00
59767;BME280;46248;58.364;25.582;2024-01-16T10:44:52;98408.88;;;-11.27;100.00
59767;BME280;46248;58.364;25.582;2024-01-16T10:48:15;98418.97;;;-11.22;100.00
59767;BME280;46248;58.364;25.582;2024-01-16T10:51:38;98426.56;;;-11.24;100.00
59767;BME280;46248;58.364;25.582;2024-01-16T10:55:08;98436.69;;;-11.24;100.00
59767;BME280;46248;58.364;25.582;2024-01-16T10:58:31;98448.44;;;-11.26;100.00
59767;BME280;46248;58.364;25.582;2024-01-16T11:01:56;98445.06;;;-11.30;100.00
59767;BME280;46248;58.364;25.582;2024-01-16T11:05:22;98468.66;;;-11.31;100.00
59767;BME280;46248;58.364;25.582;2024-01-16T11:08:47;98477.91;;;-11.34;100.00
59767;BME280;46248;58.364;25.582;2024-01-16T11:12:12;98484.63;;;-11.35;100.00
59767;BME280;46248;58.364;25.582;2024-01-16T11:15:38;98483.78;;;-11.43;100.00
59767;BME280;46248;58.364;25.582;2024-01-16T11:19:04;98478.72;;;-11.40;100.00
59767;BME280;46248;58.364;25.582;2024-01-16T11:22:49;98494.72;;;-11.38;100.00
59767;BME280;46248;58.364;25.582;2024-01-16T11:26:27;98492.19;;;-11.39;100.00
59767;BME280;46248;58.364;25.582;2024-01-16T11:29:56;98488.03;;;-11.34;100.00
59767;BME280;46248;58.364;25.582;2024-01-16T11:33:42;98499.78;;;-11.36;100.00
59767;BME280;46248;58.364;25.582;2024-01-16T11:37:07;98474.47;;;-11.53;100.00
59767;BME280;46248;58.364;25.582;2024-01-16T11:40:32;98493.91;;;-11.37;100.00
59767;BME280;46248;58.364;25.582;2024-01-16T11:43:54;98514.97;;;-11.22;100.00
59767;BME280;46248;58.364;25.582;2024-01-16T11:47:19;98520.03;;;-11.27;100.00
59767;BME280;46248;58.364;25.582;2024-01-16T11:50:43;98526.75;;;-11.32;100.00
59767;BME280;46248;58.364;25.582;2024-01-16T11:54:07;98536.84;;;-11.34;100.00
59767;BME280;46248;58.364;25.582;2024-01-16T11:57:49;98546.97;;;-11.31;100.00
59767;BME280;46248;58.364;25.582;2024-01-16T12:01:18;98552.84;;;-11.33;100.00
59767;BME280;46248;58.364;25.582;2024-01-16T12:04:52;98568.84;;;-11.34;100.00
59767;BME280;46248;58.364;25.582;2024-01-16T12:08:21;98581.47;;;-11.37;100.00
59767;BME280;46248;58.364;25.582;2024-01-16T12:11:56;98572.19;;;-11.37;100.00
59767;BME280;46248;58.364;25.582;2024-01-16T12:15:21;98573.91;;;-11.34;100.00
59767;BME280;46248;58.364;25.582;2024-01-16T12:18:44;98594.13;;;-11.34;100.00
59767;BME280;46248;58.364;25.582;2024-01-16T12:22:13;98589.03;;;-11.39;100.00
59767;BME280;46248;58.364;25.582;2024-01-16T12:25:38;98600.78;;;-11.41;100.00
59767;BME280;46248;58.364;25.582;2024-01-16T12:29:20;98605.81;;;-11.44;100.00
59767;BME280;46248;58.364;25.582;2024-01-16T12:32:43;98603.31;;;-11.38;100.00
59767;BME280;46248;58.364;25.582;2024-01-16T12:36:15;98610.00;;;-11.47;100.00
59767;BME280;46248;58.364;25.582;2024-01-16T12:39:39;98609.19;;;-11.49;100.00
59767;BME280;46248;58.364;25.582;2024-01-16T12:43:03;98632.72;;;-11.50;100.00
59767;BME280;46248;58.364;25.582;2024-01-16T12:46:27;98626.00;;;-11.51;100.00
59767;BME280;46248;58.364;25.582;2024-01-16T12:49:50;98635.22;;;-11.55;100.00
59767;BME280;46248;58.364;25.582;2024-01-16T12:53:14;98635.22;;;-11.58;100.00
59767;BME280;46248;58.364;25.582;2024-01-16T12:56:39;98654.59;;;-11.54;100.00
59767;BME280;46248;58.364;25.582;2024-01-16T13:00:21;98645.34;;;-11.55;100.00
59767;BME280;46248;58.364;25.582;2024-01-16T13:03:44;98652.94;;;-11.52;100.00
59767;BME280;46248;58.364;25.582;2024-01-16T13:07:06;98652.94;;;-11.50;100.00
59767;BME280;46248;58.364;25.582;2024-01-16T13:10:30;98658.81;;;-11.51;100.00
59767;BME280;46248;58.364;25.582;2024-01-16T13:14:02;98662.16;;;-11.54;100.00
59767;BME280;46248;58.364;25.582;2024-01-16T13:17:25;98678.13;;;-11.57;100.00
59767;BME280;46248;58.364;25.582;2024-01-16T13:20:48;98687.31;;;-11.65;100.00
59767;BME280;46248;58.364;25.582;2024-01-16T13:24:12;98686.41;;;-11.74;100.00
59767;BME280;46248;58.364;25.582;2024-01-16T13:27:35;98713.28;;;-11.81;100.00
59767;BME280;46248;58.364;25.582;2024-01-16T13:30:59;98724.94;;;-11.95;100.00
59767;BME280;46248;58.364;25.582;2024-01-16T13:34:21;98729.13;;;-12.01;100.00
59767;BME280;46248;58.364;25.582;2024-01-16T13:37:47;98739.19;;;-12.02;100.00
59767;BME280;46248;58.364;25.582;2024-01-16T13:41:11;98746.69;;;-12.10;100.00
59767;BME280;46248;58.364;25.582;2024-01-16T13:44:34;98744.91;;;-12.18;100.00
59767;BME280;46248;58.364;25.582;2024-01-16T13:47:58;98755.81;;;-12.21;100.00
59767;BME280;46248;58.364;25.582;2024-01-16T13:51:22;98755.63;;;-12.35;100.00
59767;BME280;46248;58.364;25.582;2024-01-16T13:54:45;98758.13;;;-12.38;100.00
59767;BME280;46248;58.364;25.582;2024-01-16T13:58:08;98776.53;;;-12.45;100.00
59767;BME280;46248;58.364;25.582;2024-01-16T14:01:31;98777.34;;;-12.48;100.00
59767;BME280;46248;58.364;25.582;2024-01-16T14:04:56;98782.34;;;-12.52;100.00
59767;BME280;46248;58.364;25.582;2024-01-16T14:08:18;98796.63;;;-12.51;100.00
59767;BME280;46248;58.364;25.582;2024-01-16T14:11:42;98800.84;;;-12.50;100.00
59767;BME280;46248;58.364;25.582;2024-01-16T14:15:06;98808.47;;;-12.44;100.00
59767;BME280;46248;58.364;25.582;2024-01-16T14:18:37;98812.63;;;-12.48;100.00
59767;BME280;46248;58.364;25.582;2024-01-16T14:22:01;98815.00;;;-12.60;100.00
59767;BME280;46248;58.364;25.582;2024-01-16T14:25:25;98832.59;;;-12.64;100.00
59767;BME280;46248;58.364;25.582;2024-01-16T14:28:48;98840.03;;;-12.72;100.00
59767;BME280;46248;58.364;25.582;2024-01-16T14:32:11;98842.41;;;-12.81;100.00
59767;BME280;46248;58.364;25.582;2024-01-16T14:35:34;98845.72;;;-12.85;100.00
59767;BME280;46248;58.364;25.582;2024-01-16T14:38:58;98845.69;;;-12.88;100.00
59767;BME280;46248;58.364;25.582;2024-01-16T14:42:21;98847.28;;;-12.94;100.00
59767;BME280;46248;58.364;25.582;2024-01-16T14:45:44;98864.03;;;-12.97;100.00
59767;BME280;46248;58.364;25.582;2024-01-16T14:49:07;98871.47;;;-13.03;100.00
59767;BME280;46248;58.364;25.582;2024-01-16T14:52:30;98866.19;;;-13.17;100.00
59767;BME280;46248;58.364;25.582;2024-01-16T14:55:55;98839.06;;;-13.35;100.00
59767;BME280;46248;58.364;25.582;2024-01-16T14:59:19;98865.25;;;-13.24;100.00
59767;BME280;46248;58.364;25.582;2024-01-16T15:02:42;98889.59;;;-13.23;100.00
59767;BME280;46248;58.364;25.582;2024-01-16T15:06:05;98898.88;;;-13.22;100.00
59767;BME280;46248;58.364;25.582;2024-01-16T15:09:27;98907.22;;;-13.24;100.00
59767;BME280;46248;58.364;25.582;2024-01-16T15:12:52;98909.72;;;-13.27;100.00
59767;BME280;46248;58.364;25.582;2024-01-16T15:16:15;98896.06;;;-13.39;100.00
59767;BME280;46248;58.364;25.582;2024-01-16T15:19:40;98914.53;;;-13.38;100.00
59767;BME280;46248;58.364;25.582;2024-01-16T15:23:03;98922.03;;;-13.41;100.00
59767;BME280;46248;58.364;25.582;2024-01-16T15:26:27;98925.34;;;-13.44;100.00
59767;BME280;46248;58.364;25.582;2024-01-16T15:29:51;98927.69;;;-13.54;100.00
59767;BME280;46248;58.364;25.582;2024-01-16T15:33:16;98938.44;;;-13.62;100.00
59767;BME280;46248;58.364;25.582;2024-01-16T15:36:39;98930.63;;;-13.74;100.00
59767;BME280;46248;58.364;25.582;2024-01-16T15:40:02;98951.66;;;-13.72;100.00
59767;BME280;46248;58.364;25.582;2024-01-16T15:43:27;98954.91;;;-13.77;100.00
59767;BME280;46248;58.364;25.582;2024-01-16T15:46:56;98961.47;;;-13.84;100.00
59767;BME280;46248;58.364;25.582;2024-01-16T15:50:19;98965.47;;;-13.92;100.00
59767;BME280;46248;58.364;25.582;2024-01-16T15:53:42;98972.88;;;-14.00;100.00
59767;BME280;46248;58.364;25.582;2024-01-16T15:57:05;98972.00;;;-14.02;100.00
59767;BME280;46248;58.364;25.582;2024-01-16T16:00:28;98981.91;;;-14.10;100.00
59767;BME280;46248;58.364;25.582;2024-01-16T16:03:53;98985.06;;;-14.17;100.00
59767;BME280;46248;58.364;25.582;2024-01-16T16:07:17;99003.38;;;-14.22;100.00
59767;BME280;46248;58.364;25.582;2024-01-16T16:10:43;99004.97;;;-14.27;100.00
59767;BME280;46248;58.364;25.582;2024-01-16T16:14:06;99017.47;;;-14.31;100.00
59767;BME280;46248;58.364;25.582;2024-01-16T16:17:29;99011.38;;;-14.39;100.00
59767;BME280;46248;58.364;25.582;2024-01-16T16:20:55;99025.56;;;-14.42;100.00
59767;BME280;46248;58.364;25.582;2024-01-16T16:24:19;99026.97;;;-14.53;100.00
59767;BME280;46248;58.364;25.582;2024-01-16T16:27:43;99047.09;;;-14.53;100.00
59767;BME280;46248;58.364;25.582;2024-01-16T16:31:10;99051.19;;;-14.57;100.00
59767;BME280;46248;58.364;25.582;2024-01-16T16:34:36;99053.47;;;-14.66;100.00
59767;BME280;46248;58.364;25.582;2024-01-16T16:38:01;99053.31;;;-14.72;100.00
59767;BME280;46248;58.364;25.582;2024-01-16T16:41:24;99053.94;;;-14.80;100.00
59767;BME280;46248;58.364;25.582;2024-01-16T16:44:48;99073.41;;;-14.72;100.00
59767;BME280;46248;58.364;25.582;2024-01-16T16:48:12;99062.38;;;-14.78;100.00
59767;BME280;46248;58.364;25.582;2024-01-16T16:51:35;99064.88;;;-14.79;100.00
59767;BME280;46248;58.364;25.582;2024-01-16T16:55:05;99069.00;;;-14.81;100.00
59767;BME280;46248;58.364;25.582;2024-01-16T16:58:28;99083.22;;;-14.82;100.00
59767;BME280;46248;58.364;25.582;2024-01-16T17:01:51;99085.56;;;-14.88;100.00
59767;BME280;46248;58.364;25.582;2024-01-16T17:05:15;99070.34;;;-14.94;100.00
59767;BME280;46248;58.364;25.582;2024-01-16T17:08:40;99091.44;;;-14.87;100.00
59767;BME280;46248;58.364;25.582;2024-01-16T17:12:07;99097.22;;;-14.90;100.00
59767;BME280;46248;58.364;25.582;2024-01-16T17:15:31;99105.56;;;-14.91;100.00
59767;BME280;46248;58.364;25.582;2024-01-16T17:18:53;99103.75;;;-14.96;100.00
59767;BME280;46248;58.364;25.582;2024-01-16T17:22:17;99089.03;;;-15.13;100.00
59767;BME280;46248;58.364;25.582;2024-01-16T17:25:40;99112.63;;;-15.08;100.00